Bay Islands (Utila), Honduras
Current Conditions -  °F | °C
As of 7:00 PM on Thursday 27 Nov 2014 (Local Time) from MHLC Reporting Station
Overcast Overcast  
Wind Chill: 70°   Ceiling: 7000
Heat Index: 70°   Visibility: 6mi
Dew Point: 66°   Wind: 14mph
Humidity: 88%   Direction: 220°SW
Pressure: 30.09"   Gusts: NA
Location:  16.1°N, 86.95°W
Report Text: MHLC 280100Z 22012KT 9999 SCT024 OVC070 21/19 Q1019 A3012NOSIG
Loading
Personal Weather Stations






























Interactive Weather Map New forecast layout! Learn more

10-Day Weather Forecast

Advertisements
Track Severe Weather on mobile